createdAt,value
2019-03-31T00:02:02.653Z,76.80
2019-03-31T00:04:28.787Z,76.40
2019-03-31T00:06:55.233Z,76.50
2019-03-31T00:09:21.421Z,76.40
2019-03-31T00:11:47.565Z,76.40
2019-03-31T00:14:13.805Z,76.20
2019-03-31T00:16:40.247Z,76.40
2019-03-31T00:19:07.491Z,78.70
2019-03-31T00:21:39.603Z,76.80
2019-03-31T00:24:05.753Z,78.00
2019-03-31T00:26:31.925Z,78.10
2019-03-31T00:28:58.182Z,78.10
2019-03-31T00:31:24.336Z,78.60
2019-03-31T00:33:50.509Z,78.60
2019-03-31T00:36:16.696Z,79.20
2019-03-31T00:38:42.828Z,78.80
2019-03-31T00:41:08.975Z,79.60
2019-03-31T00:43:35.121Z,79.40
2019-03-31T00:46:01.264Z,79.30
2019-03-31T00:48:27.397Z,80.00
2019-03-31T00:50:53.548Z,79.90
2019-03-31T00:53:19.691Z,80.00
2019-03-31T00:55:46.147Z,80.40
2019-03-31T00:58:12.296Z,80.60
2019-03-31T01:00:46.507Z,80.40
2019-03-31T01:03:16.467Z,80.00
2019-03-31T01:05:42.848Z,80.20
2019-03-31T01:08:09.387Z,80.40
2019-03-31T01:10:35.534Z,80.50
2019-03-31T01:13:02.737Z,80.60
2019-03-31T01:15:30.580Z,80.70
2019-03-31T01:17:56.937Z,80.90
2019-03-31T01:20:23.078Z,81.30
2019-03-31T01:22:49.327Z,81.30
2019-03-31T01:25:15.878Z,81.30
2019-03-31T01:27:42.035Z,81.10
2019-03-31T01:30:10.491Z,81.10
2019-03-31T01:32:37.456Z,81.30
2019-03-31T01:35:06.205Z,81.30
2019-03-31T01:37:32.364Z,81.40
2019-03-31T01:39:59.010Z,81.50
2019-03-31T01:42:25.172Z,81.30
2019-03-31T01:44:51.823Z,81.00
2019-03-31T01:47:18.890Z,82.30
2019-03-31T01:49:45.016Z,82.40
2019-03-31T01:52:11.280Z,81.50
2019-03-31T01:54:37.427Z,81.70
2019-03-31T01:57:03.594Z,81.70
2019-03-31T01:59:29.757Z,82.30
2019-03-31T02:02:04.154Z,81.90
2019-03-31T02:04:24.926Z,81.70
2019-03-31T02:06:51.067Z,81.60
2019-03-31T02:09:17.221Z,81.90
2019-03-31T02:11:43.363Z,81.80
2019-03-31T02:14:09.515Z,81.90
2019-03-31T02:16:35.656Z,81.90
2019-03-31T02:19:01.795Z,82.20
2019-03-31T02:21:28.226Z,82.40
2019-03-31T02:23:54.367Z,82.40
2019-03-31T02:26:20.502Z,82.80
2019-03-31T02:28:46.667Z,81.20
2019-03-31T02:31:13.140Z,82.00
2019-03-31T02:33:39.293Z,81.70
2019-03-31T02:36:05.435Z,82.20
2019-03-31T02:38:31.585Z,82.40
2019-03-31T02:40:57.722Z,83.40
2019-03-31T02:43:23.867Z,82.80
2019-03-31T02:45:50.017Z,83.20
2019-03-31T02:48:16.175Z,83.90
2019-03-31T02:50:47.435Z,83.20
2019-03-31T02:53:15.180Z,83.50
2019-03-31T02:55:42.828Z,83.10
2019-03-31T02:58:11.147Z,83.80
2019-03-31T03:00:37.704Z,83.60
2019-03-31T03:03:05.565Z,83.70
2019-03-31T03:05:33.915Z,84.60
2019-03-31T03:08:02.379Z,83.80
2019-03-31T03:10:31.319Z,82.50
2019-03-31T03:12:59.882Z,83.60
2019-03-31T03:15:26.722Z,83.50
2019-03-31T03:17:53.197Z,83.40
2019-03-31T03:20:19.389Z,84.30
2019-03-31T03:22:45.514Z,84.20
2019-03-31T03:25:11.882Z,86.00
2019-03-31T03:27:38.041Z,85.60
2019-03-31T03:30:05.504Z,85.80
2019-03-31T03:32:31.649Z,86.10
2019-03-31T03:34:57.796Z,85.80
2019-03-31T03:37:23.942Z,85.70
2019-03-31T03:39:50.100Z,86.10
2019-03-31T03:42:16.495Z,86.60
2019-03-31T03:44:42.926Z,86.50
2019-03-31T03:47:09.183Z,86.90
2019-03-31T03:49:35.327Z,87.20
2019-03-31T03:52:01.467Z,86.90
2019-03-31T03:54:27.624Z,87.40
2019-03-31T03:56:53.798Z,87.80
2019-03-31T03:59:19.959Z,88.00
2019-03-31T04:01:46.108Z,88.10
2019-03-31T04:04:12.264Z,88.60
2019-03-31T04:06:38.407Z,89.20
2019-03-31T04:09:05.677Z,88.70
2019-03-31T04:11:31.818Z,89.00
2019-03-31T04:13:57.975Z,88.70
2019-03-31T04:16:24.237Z,88.60
2019-03-31T04:18:50.571Z,89.20
2019-03-31T04:21:16.714Z,88.60
2019-03-31T04:23:43.881Z,88.90
2019-03-31T04:26:10.033Z,89.20
2019-03-31T04:28:36.180Z,88.80
2019-03-31T04:31:02.331Z,88.90
2019-03-31T04:33:28.469Z,89.20
2019-03-31T04:35:55.990Z,89.20
2019-03-31T04:38:22.181Z,88.90
2019-03-31T04:40:48.377Z,88.20
2019-03-31T04:43:14.512Z,88.40
2019-03-31T04:45:41.113Z,87.20
2019-03-31T04:48:07.462Z,87.10
2019-03-31T04:50:33.880Z,87.70
2019-03-31T04:53:00.020Z,87.30
2019-03-31T04:55:26.171Z,87.40
2019-03-31T04:57:52.311Z,87.90
2019-03-31T05:00:18.479Z,87.10
2019-03-31T05:02:44.619Z,87.80
2019-03-31T05:05:10.779Z,87.40
2019-03-31T05:07:36.913Z,86.50
2019-03-31T05:10:05.337Z,85.60
2019-03-31T05:12:31.490Z,85.10
2019-03-31T05:14:57.647Z,85.10
2019-03-31T05:17:24.887Z,84.60
2019-03-31T05:19:51.043Z,84.90
2019-03-31T05:22:17.198Z,85.50
2019-03-31T05:24:43.372Z,85.10
2019-03-31T05:27:09.742Z,84.20
2019-03-31T05:29:35.973Z,84.40
2019-03-31T05:32:02.107Z,83.50
2019-03-31T05:34:28.559Z,84.90
2019-03-31T05:36:54.721Z,84.20
2019-03-31T05:39:20.842Z,83.50
2019-03-31T05:41:46.996Z,82.80
2019-03-31T05:44:13.139Z,82.50
2019-03-31T05:46:39.312Z,82.30
2019-03-31T05:49:05.456Z,82.60
2019-03-31T05:51:31.616Z,82.30
2019-03-31T05:53:57.761Z,81.70
2019-03-31T05:56:23.911Z,82.80
2019-03-31T05:58:50.053Z,82.20
2019-03-31T06:01:16.202Z,82.40
2019-03-31T06:03:42.346Z,82.60
2019-03-31T06:06:08.586Z,82.90
2019-03-31T06:08:34.741Z,83.10
2019-03-31T06:11:00.888Z,83.70
2019-03-31T06:13:27.035Z,84.40
2019-03-31T06:15:53.507Z,84.40
2019-03-31T06:18:19.655Z,84.60
2019-03-31T06:20:45.811Z,85.70
2019-03-31T06:23:11.961Z,85.50
2019-03-31T06:25:38.111Z,86.00
2019-03-31T06:28:04.258Z,86.10
2019-03-31T06:30:30.615Z,86.10
2019-03-31T06:32:56.759Z,86.90
2019-03-31T06:35:22.906Z,87.50
2019-03-31T06:37:49.056Z,87.60
2019-03-31T06:40:15.456Z,88.90
2019-03-31T06:42:41.593Z,88.20
2019-03-31T06:45:08.440Z,88.40
2019-03-31T06:47:34.598Z,89.00
2019-03-31T06:50:01.041Z,89.90
2019-03-31T06:52:27.190Z,89.90
2019-03-31T06:54:53.673Z,89.50
2019-03-31T06:57:19.841Z,89.60
2019-03-31T06:59:45.990Z,89.80
2019-03-31T07:02:12.148Z,90.10
2019-03-31T07:04:38.282Z,90.10
2019-03-31T07:07:05.426Z,90.00
2019-03-31T07:09:31.594Z,90.00
2019-03-31T07:11:57.758Z,90.10
2019-03-31T07:14:23.901Z,90.30
2019-03-31T07:16:50.064Z,90.40
2019-03-31T07:19:16.207Z,90.50
2019-03-31T07:21:42.364Z,90.60
2019-03-31T07:24:08.815Z,90.70
2019-03-31T07:26:34.978Z,90.70
2019-03-31T07:29:02.503Z,91.20
2019-03-31T07:31:28.650Z,90.70
2019-03-31T07:33:54.802Z,90.80
2019-03-31T07:36:20.943Z,90.80
2019-03-31T07:38:47.090Z,90.80
2019-03-31T07:41:13.649Z,90.90
2019-03-31T07:43:40.402Z,90.90
2019-03-31T07:46:06.546Z,90.90
2019-03-31T07:48:32.696Z,91.10
2019-03-31T07:50:59.174Z,91.10
2019-03-31T07:53:26.432Z,91.20
2019-03-31T07:55:52.571Z,91.30
2019-03-31T07:58:18.991Z,91.40
2019-03-31T08:00:46.248Z,91.50
2019-03-31T08:03:12.396Z,91.60
2019-03-31T08:05:38.543Z,91.40
2019-03-31T08:08:04.703Z,91.20
2019-03-31T08:10:30.867Z,91.20
2019-03-31T08:12:57.018Z,90.80
2019-03-31T08:15:23.164Z,91.00
2019-03-31T08:17:49.463Z,91.00
2019-03-31T08:20:17.812Z,90.70
2019-03-31T08:22:43.974Z,90.60
2019-03-31T08:25:12.219Z,90.60
2019-03-31T08:27:38.484Z,90.70
2019-03-31T08:30:10.866Z,90.50
2019-03-31T08:32:37.353Z,90.70
2019-03-31T08:35:06.205Z,90.60
2019-03-31T08:37:32.692Z,90.30
2019-03-31T08:39:58.829Z,90.00
2019-03-31T08:42:24.982Z,89.80
2019-03-31T08:44:51.129Z,89.90
2019-03-31T08:47:17.283Z,90.00
2019-03-31T08:49:44.095Z,89.80
2019-03-31T08:52:10.279Z,89.40
2019-03-31T08:54:36.422Z,89.20
2019-03-31T08:57:02.984Z,89.00
2019-03-31T08:59:29.139Z,89.20
2019-03-31T09:01:55.296Z,88.40
2019-03-31T09:04:21.440Z,88.20
2019-03-31T09:06:47.583Z,87.90
2019-03-31T09:09:13.747Z,87.30
2019-03-31T09:11:40.179Z,87.30
2019-03-31T09:14:06.615Z,87.60
2019-03-31T09:16:32.760Z,87.10
2019-03-31T09:18:58.907Z,86.20
2019-03-31T09:21:25.050Z,86.90
2019-03-31T09:23:51.203Z,86.00
2019-03-31T09:26:17.352Z,86.00
2019-03-31T09:28:43.510Z,85.40
2019-03-31T09:31:09.685Z,86.30
2019-03-31T09:33:39.187Z,85.00
2019-03-31T09:36:15.573Z,84.60
2019-03-31T09:38:32.474Z,83.90
2019-03-31T09:40:58.622Z,84.50
2019-03-31T09:43:24.775Z,84.30
2019-03-31T09:45:50.915Z,84.00
2019-03-31T09:48:17.062Z,82.70
2019-03-31T09:50:43.224Z,83.00
2019-03-31T09:53:09.370Z,83.40
2019-03-31T09:55:35.524Z,82.60
2019-03-31T09:58:01.780Z,82.50
2019-03-31T10:00:46.081Z,81.50
2019-03-31T10:03:12.679Z,82.40
2019-03-31T10:05:39.124Z,80.80
2019-03-31T10:08:05.275Z,81.60
2019-03-31T10:10:31.942Z,81.10
2019-03-31T10:12:58.684Z,79.90
2019-03-31T10:15:24.849Z,80.00
2019-03-31T10:17:50.984Z,79.80
2019-03-31T10:20:17.138Z,78.60
2019-03-31T10:22:43.289Z,78.40
2019-03-31T10:25:13.329Z,78.30
2019-03-31T10:27:39.602Z,78.10
2019-03-31T10:30:06.571Z,77.20
2019-03-31T10:32:32.735Z,76.40
2019-03-31T10:34:58.899Z,75.60
2019-03-31T10:37:25.037Z,74.10
2019-03-31T10:39:51.547Z,73.40
2019-03-31T10:42:17.704Z,72.80
2019-03-31T10:44:43.842Z,73.10
2019-03-31T10:47:09.994Z,72.50
2019-03-31T10:49:36.470Z,72.70
2019-03-31T10:52:02.723Z,73.00
2019-03-31T10:54:28.876Z,72.50
2019-03-31T10:56:55.027Z,72.50
2019-03-31T10:59:21.174Z,72.00
2019-03-31T11:01:47.322Z,72.50
2019-03-31T11:04:13.475Z,73.40
2019-03-31T11:06:39.626Z,72.50
2019-03-31T11:09:05.982Z,72.00
2019-03-31T11:11:32.223Z,71.00
2019-03-31T11:13:58.427Z,70.90
2019-03-31T11:16:24.563Z,70.90
2019-03-31T11:18:50.721Z,71.40
2019-03-31T11:21:18.762Z,71.40
2019-03-31T11:23:45.007Z,71.70
2019-03-31T11:26:11.205Z,70.20
2019-03-31T11:28:37.650Z,69.90
2019-03-31T11:31:03.808Z,69.90
2019-03-31T11:33:30.214Z,70.50
2019-03-31T11:35:56.360Z,71.10
2019-03-31T11:38:22.512Z,70.00
2019-03-31T11:40:48.663Z,70.00
2019-03-31T11:43:14.808Z,70.00
2019-03-31T11:45:40.952Z,69.90
2019-03-31T11:48:07.103Z,70.30
2019-03-31T11:50:33.253Z,69.20
2019-03-31T11:52:59.398Z,69.20
2019-03-31T11:55:25.576Z,70.30
2019-03-31T11:57:52.623Z,69.80
2019-03-31T12:00:23.262Z,69.10
2019-03-31T12:02:49.450Z,69.40
2019-03-31T12:05:15.606Z,69.70
2019-03-31T12:07:46.974Z,68.90
2019-03-31T12:10:10.707Z,69.70
2019-03-31T12:12:36.978Z,67.50
2019-03-31T12:15:05.439Z,67.50
2019-03-31T12:17:31.587Z,67.10
2019-03-31T12:19:57.745Z,67.10
2019-03-31T12:22:23.897Z,67.00
2019-03-31T12:24:50.103Z,66.00
2019-03-31T12:27:16.383Z,66.70
2019-03-31T12:29:42.532Z,67.40
2019-03-31T12:32:08.735Z,66.90
2019-03-31T12:34:34.921Z,67.10
2019-03-31T12:37:01.091Z,68.10
2019-03-31T12:39:27.267Z,66.70
2019-03-31T12:41:53.470Z,67.20
2019-03-31T12:44:19.963Z,66.70
2019-03-31T12:46:46.192Z,67.60
2019-03-31T12:49:12.743Z,67.80
2019-03-31T12:51:39.179Z,67.00
2019-03-31T12:54:05.327Z,67.10
2019-03-31T12:56:31.671Z,66.80
2019-03-31T12:58:57.854Z,66.80
2019-03-31T13:01:24.160Z,67.40
2019-03-31T13:03:50.440Z,67.10
2019-03-31T13:06:16.940Z,66.90
2019-03-31T13:08:43.171Z,67.00
2019-03-31T13:11:09.439Z,66.80
2019-03-31T13:13:35.595Z,67.10
2019-03-31T13:16:01.868Z,66.70
2019-03-31T13:18:28.377Z,67.40
2019-03-31T13:20:54.700Z,66.60
2019-03-31T13:23:20.849Z,66.20
2019-03-31T13:25:47.392Z,66.00
2019-03-31T13:28:13.548Z,65.70
2019-03-31T13:30:39.708Z,65.20
2019-03-31T13:33:05.930Z,65.20
2019-03-31T13:35:32.427Z,65.70
2019-03-31T13:38:10.228Z,64.80
2019-03-31T13:40:26.875Z,64.40
2019-03-31T13:42:53.043Z,64.70
2019-03-31T13:45:19.211Z,64.10
2019-03-31T13:47:45.844Z,63.20
2019-03-31T13:50:12.671Z,63.90
2019-03-31T13:52:38.906Z,63.90
2019-03-31T13:55:06.047Z,63.20
2019-03-31T13:57:33.067Z,62.90
2019-03-31T13:59:59.595Z,63.90
2019-03-31T14:02:25.902Z,63.90
2019-03-31T14:04:52.204Z,64.30
2019-03-31T14:07:18.453Z,64.90
2019-03-31T14:09:44.646Z,64.00
2019-03-31T14:12:10.925Z,64.20
2019-03-31T14:14:37.105Z,63.40
2019-03-31T14:17:03.617Z,64.20
2019-03-31T14:19:29.771Z,64.20
2019-03-31T14:21:57.034Z,64.20
2019-03-31T14:24:26.684Z,63.70
2019-03-31T14:26:51.261Z,63.30
2019-03-31T14:29:17.430Z,63.90
2019-03-31T14:31:43.672Z,64.00
2019-03-31T14:34:09.947Z,64.70
2019-03-31T14:36:36.396Z,63.90
2019-03-31T14:39:05.665Z,64.50
2019-03-31T14:41:31.914Z,65.00
2019-03-31T14:43:58.115Z,64.20
2019-03-31T14:46:24.267Z,64.30
2019-03-31T14:48:50.443Z,63.80
2019-03-31T14:51:16.600Z,64.40
2019-03-31T14:53:42.753Z,64.80
2019-03-31T14:56:09.112Z,64.60
2019-03-31T14:58:35.281Z,65.10
2019-03-31T15:01:01.550Z,63.60
2019-03-31T15:03:28.320Z,63.90
2019-03-31T15:05:54.512Z,64.50
2019-03-31T15:08:20.663Z,64.60
2019-03-31T15:10:46.995Z,64.90
2019-03-31T15:13:13.159Z,64.80
2019-03-31T15:15:39.330Z,64.90
2019-03-31T15:18:05.478Z,65.40
2019-03-31T15:20:31.634Z,66.30
2019-03-31T15:22:57.853Z,66.20
2019-03-31T15:25:25.023Z,66.00
2019-03-31T15:27:52.431Z,66.20
2019-03-31T15:30:18.713Z,65.30
2019-03-31T15:32:44.977Z,65.40
2019-03-31T15:35:11.354Z,65.30
2019-03-31T15:37:37.754Z,65.70
2019-03-31T15:40:05.422Z,65.40
2019-03-31T15:42:31.705Z,65.30
2019-03-31T15:44:57.879Z,65.80
2019-03-31T15:47:24.065Z,65.90
2019-03-31T15:49:50.216Z,65.70
2019-03-31T15:52:16.363Z,65.70
2019-03-31T15:54:42.656Z,64.80
2019-03-31T15:57:08.836Z,65.20
2019-03-31T15:59:34.995Z,65.10
2019-03-31T16:02:01.487Z,64.70
2019-03-31T16:04:29.017Z,64.60
2019-03-31T16:06:55.277Z,64.70
2019-03-31T16:09:23.581Z,64.70
2019-03-31T16:11:53.915Z,64.60
2019-03-31T16:14:17.686Z,64.80
2019-03-31T16:16:43.917Z,64.30
2019-03-31T16:19:10.083Z,64.50
2019-03-31T16:21:36.231Z,64.80
2019-03-31T16:24:02.399Z,64.50
2019-03-31T16:26:28.527Z,64.30
2019-03-31T16:28:54.711Z,64.80
2019-03-31T16:31:20.867Z,64.00
2019-03-31T16:33:47.020Z,63.10
2019-03-31T16:36:13.183Z,62.70
2019-03-31T16:38:40.646Z,63.00
2019-03-31T16:41:06.806Z,63.70
2019-03-31T16:43:32.964Z,63.90
2019-03-31T16:45:59.411Z,64.40
2019-03-31T16:48:26.564Z,64.60
2019-03-31T16:50:53.068Z,64.40
2019-03-31T16:53:19.218Z,64.40
2019-03-31T16:55:45.438Z,64.40
2019-03-31T16:58:11.662Z,64.70
2019-03-31T17:00:37.929Z,64.70
2019-03-31T17:03:04.180Z,64.70
2019-03-31T17:05:30.342Z,65.00
2019-03-31T17:07:56.556Z,64.50
2019-03-31T17:10:22.711Z,64.80
2019-03-31T17:12:48.917Z,64.60
2019-03-31T17:15:15.898Z,64.50
2019-03-31T17:17:42.270Z,64.50
2019-03-31T17:20:08.927Z,64.70
2019-03-31T17:22:35.279Z,64.40
2019-03-31T17:25:02.746Z,64.40
2019-03-31T17:27:29.207Z,63.50
2019-03-31T17:29:55.409Z,63.50
2019-03-31T17:32:21.604Z,63.60
2019-03-31T17:34:47.898Z,64.00
2019-03-31T17:37:14.367Z,64.90
2019-03-31T17:39:40.596Z,65.10
2019-03-31T17:42:06.835Z,65.50
2019-03-31T17:44:33.008Z,65.30
2019-03-31T17:46:59.162Z,65.10
2019-03-31T17:49:25.691Z,65.70
2019-03-31T17:51:52.419Z,66.00
2019-03-31T17:54:19.085Z,66.20
2019-03-31T17:56:45.314Z,67.10
2019-03-31T17:59:11.459Z,65.30
2019-03-31T18:01:37.617Z,65.00
2019-03-31T18:04:03.811Z,65.30
2019-03-31T18:06:30.286Z,65.40
2019-03-31T18:08:56.432Z,65.30
2019-03-31T18:11:22.584Z,65.80
2019-03-31T18:13:49.140Z,65.90
2019-03-31T18:16:15.658Z,66.00
2019-03-31T18:18:41.952Z,65.90
2019-03-31T18:21:08.141Z,65.70
2019-03-31T18:23:34.595Z,66.00
2019-03-31T18:26:00.824Z,66.20
2019-03-31T18:28:27.028Z,66.30
2019-03-31T18:30:53.443Z,66.60
2019-03-31T18:33:19.711Z,66.40
2019-03-31T18:35:45.909Z,66.30
2019-03-31T18:38:12.053Z,66.20
2019-03-31T18:40:38.257Z,66.00
2019-03-31T18:43:04.493Z,66.10
2019-03-31T18:45:30.980Z,66.00
2019-03-31T18:47:57.146Z,65.90
2019-03-31T18:50:23.302Z,65.70
2019-03-31T18:52:49.464Z,65.30
2019-03-31T18:55:35.835Z,64.90
2019-03-31T18:58:03.890Z,64.40
2019-03-31T19:00:48.717Z,63.80
2019-03-31T19:03:31.736Z,64.00
2019-03-31T19:06:02.479Z,63.80
2019-03-31T19:08:36.510Z,63.80
2019-03-31T19:11:21.182Z,63.60
2019-03-31T19:14:04.452Z,63.30
2019-03-31T19:16:41.379Z,63.50
2019-03-31T19:19:25.940Z,63.50
2019-03-31T19:22:09.408Z,63.40
2019-03-31T19:24:46.042Z,63.20
2019-03-31T19:27:22.448Z,63.30
2019-03-31T19:29:56.349Z,63.70
2019-03-31T19:32:26.972Z,64.00
2019-03-31T19:35:13.444Z,62.60
2019-03-31T19:38:00.003Z,62.20
2019-03-31T19:40:31.082Z,62.40
2019-03-31T19:43:01.866Z,61.80
2019-03-31T19:45:35.842Z,62.00
2019-03-31T19:48:16.818Z,61.20
2019-03-31T19:50:45.247Z,60.50
2019-03-31T19:53:28.405Z,61.00
2019-03-31T19:56:07.901Z,60.80
2019-03-31T19:58:35.251Z,60.50
2019-03-31T20:01:05.848Z,60.50
2019-03-31T20:03:36.815Z,60.20
2019-03-31T20:06:19.922Z,60.50
2019-03-31T20:08:53.814Z,60.40
2019-03-31T20:11:25.115Z,60.30
2019-03-31T20:14:08.351Z,60.50
2019-03-31T20:16:45.279Z,61.30
2019-03-31T20:19:13.362Z,61.10
2019-03-31T20:21:53.438Z,61.40
2019-03-31T20:24:33.629Z,61.40
2019-03-31T20:27:04.449Z,61.40
2019-03-31T20:29:47.378Z,61.40
2019-03-31T20:32:24.508Z,61.30
2019-03-31T20:34:55.597Z,61.60
2019-03-31T20:37:32.821Z,61.50
2019-03-31T20:40:03.862Z,61.70
2019-03-31T20:42:34.702Z,61.90
2019-03-31T20:45:01.059Z,62.50
2019-03-31T20:47:27.212Z,62.30
2019-03-31T20:49:53.471Z,62.50
2019-03-31T20:52:19.883Z,62.90
2019-03-31T20:54:47.262Z,63.70
2019-03-31T20:57:13.418Z,64.50
2019-03-31T20:59:39.614Z,65.10
2019-03-31T21:02:05.928Z,65.40
2019-03-31T21:04:32.121Z,65.30
2019-03-31T21:06:58.273Z,65.40
2019-03-31T21:09:24.442Z,65.70
2019-03-31T21:11:50.587Z,65.70
2019-03-31T21:14:16.955Z,66.20
2019-03-31T21:16:43.128Z,66.40
2019-03-31T21:19:09.516Z,66.80
2019-03-31T21:21:35.665Z,67.00
2019-03-31T21:24:01.850Z,67.20
2019-03-31T21:26:28.014Z,67.50
2019-03-31T21:28:54.269Z,68.20
2019-03-31T21:31:20.756Z,68.00
2019-03-31T21:33:46.905Z,68.00
2019-03-31T21:36:13.079Z,68.40
2019-03-31T21:38:39.243Z,68.60
2019-03-31T21:41:05.411Z,68.50
2019-03-31T21:43:31.551Z,68.20
2019-03-31T21:45:57.714Z,68.50
2019-03-31T21:48:23.871Z,68.60
2019-03-31T21:50:50.027Z,69.00
2019-03-31T21:53:16.179Z,69.10
2019-03-31T21:55:42.629Z,69.00
2019-03-31T21:58:09.054Z,70.00
2019-03-31T22:00:49.231Z,70.10
2019-03-31T22:03:17.887Z,69.50
2019-03-31T22:05:44.076Z,69.50
2019-03-31T22:08:10.214Z,69.50
2019-03-31T22:10:36.696Z,69.60
2019-03-31T22:13:03.115Z,69.50
2019-03-31T22:15:30.367Z,69.20
2019-03-31T22:17:56.521Z,69.20
2019-03-31T22:20:22.761Z,68.80
2019-03-31T22:22:49.159Z,68.50
2019-03-31T22:25:15.587Z,69.20
2019-03-31T22:27:42.840Z,68.50
2019-03-31T22:30:09.187Z,67.90
2019-03-31T22:32:35.356Z,67.70
2019-03-31T22:35:02.012Z,67.10
2019-03-31T22:37:28.387Z,66.60
2019-03-31T22:39:54.644Z,66.60
2019-03-31T22:42:20.845Z,66.60
2019-03-31T22:44:46.994Z,66.80
2019-03-31T22:47:13.165Z,66.60
2019-03-31T22:49:39.304Z,66.80
2019-03-31T22:52:05.857Z,66.70
2019-03-31T22:54:31.983Z,67.00
2019-03-31T22:56:58.149Z,67.40
2019-03-31T22:59:24.286Z,67.60
2019-03-31T23:01:50.444Z,67.80
2019-03-31T23:04:16.586Z,68.20
2019-03-31T23:06:42.727Z,68.20
2019-03-31T23:09:08.895Z,68.10
2019-03-31T23:11:35.053Z,68.20
2019-03-31T23:14:01.268Z,68.70
2019-03-31T23:16:27.408Z,68.60
2019-03-31T23:18:53.577Z,68.60
2019-03-31T23:21:19.810Z,69.20
2019-03-31T23:23:46.091Z,69.30
2019-03-31T23:26:12.235Z,69.30
2019-03-31T23:28:40.291Z,69.50
2019-03-31T23:31:06.435Z,69.60
2019-03-31T23:33:32.611Z,69.60
2019-03-31T23:35:58.743Z,69.70
2019-03-31T23:38:24.902Z,70.00
2019-03-31T23:40:51.034Z,70.10
2019-03-31T23:43:17.199Z,70.60
2019-03-31T23:45:43.346Z,70.40
2019-03-31T23:48:10.843Z,70.30
2019-03-31T23:50:37.135Z,70.30
2019-03-31T23:53:04.399Z,71.00
2019-03-31T23:55:30.553Z,71.70
2019-03-31T23:57:56.698Z,70.80
